sensor_id;sensor_type;location;lat;lon;timestamp;P1;durP1;ratioP1;P2;durP2;ratioP2
69047;SDS011;56119;50.118;8.642;2023-04-07T00:01:32;24.77;;;17.83;;
69047;SDS011;56119;50.118;8.642;2023-04-07T00:03:58;22.90;;;17.02;;
69047;SDS011;56119;50.118;8.642;2023-04-07T00:06:24;23.27;;;16.58;;
69047;SDS011;56119;50.118;8.642;2023-04-07T00:08:51;25.38;;;17.10;;
69047;SDS011;56119;50.118;8.642;2023-04-07T00:11:17;25.02;;;19.08;;
69047;SDS011;56119;50.118;8.642;2023-04-07T00:13:43;23.65;;;17.48;;
69047;SDS011;56119;50.118;8.642;2023-04-07T00:16:09;23.40;;;17.70;;
69047;SDS011;56119;50.118;8.642;2023-04-07T00:18:35;27.50;;;17.85;;
69047;SDS011;56119;50.118;8.642;2023-04-07T00:21:01;25.05;;;18.13;;
69047;SDS011;56119;50.118;8.642;2023-04-07T00:23:27;26.17;;;19.55;;
69047;SDS011;56119;50.118;8.642;2023-04-07T00:25:53;25.27;;;17.30;;
69047;SDS011;56119;50.118;8.642;2023-04-07T00:28:20;24.85;;;18.67;;
69047;SDS011;56119;50.118;8.642;2023-04-07T00:30:45;25.52;;;19.02;;
69047;SDS011;56119;50.118;8.642;2023-04-07T00:33:11;29.75;;;19.23;;
69047;SDS011;56119;50.118;8.642;2023-04-07T00:35:37;26.83;;;18.05;;
69047;SDS011;56119;50.118;8.642;2023-04-07T00:38:03;25.77;;;18.83;;
69047;SDS011;56119;50.118;8.642;2023-04-07T00:40:29;26.52;;;18.80;;
69047;SDS011;56119;50.118;8.642;2023-04-07T00:42:55;25.85;;;18.98;;
69047;SDS011;56119;50.118;8.642;2023-04-07T00:45:21;25.48;;;18.80;;
69047;SDS011;56119;50.118;8.642;2023-04-07T00:47:47;24.38;;;17.48;;
69047;SDS011;56119;50.118;8.642;2023-04-07T00:50:13;26.80;;;19.08;;
69047;SDS011;56119;50.118;8.642;2023-04-07T00:52:39;25.23;;;18.00;;
69047;SDS011;56119;50.118;8.642;2023-04-07T00:55:06;29.38;;;19.35;;
69047;SDS011;56119;50.118;8.642;2023-04-07T00:57:32;24.73;;;18.73;;
69047;SDS011;56119;50.118;8.642;2023-04-07T00:59:58;25.55;;;18.05;;
69047;SDS011;56119;50.118;8.642;2023-04-07T01:02:40;31.40;;;20.25;;
69047;SDS011;56119;50.118;8.642;2023-04-07T01:05:17;27.42;;;19.25;;
69047;SDS011;56119;50.118;8.642;2023-04-07T01:14:03;27.20;;;20.05;;
69047;SDS011;56119;50.118;8.642;2023-04-07T01:15:59;26.83;;;19.58;;
69047;SDS011;56119;50.118;8.642;2023-04-07T01:18:28;29.08;;;19.85;;
69047;SDS011;56119;50.118;8.642;2023-04-07T01:20:59;29.65;;;21.23;;
69047;SDS011;56119;50.118;8.642;2023-04-07T01:26:22;25.38;;;19.20;;
69047;SDS011;56119;50.118;8.642;2023-04-07T01:28:55;29.10;;;19.30;;
69047;SDS011;56119;50.118;8.642;2023-04-07T01:31:22;24.65;;;18.50;;
69047;SDS011;56119;50.118;8.642;2023-04-07T01:33:50;25.95;;;18.55;;
69047;SDS011;56119;50.118;8.642;2023-04-07T01:36:16;24.00;;;18.95;;
69047;SDS011;56119;50.118;8.642;2023-04-07T01:38:43;27.17;;;18.52;;
69047;SDS011;56119;50.118;8.642;2023-04-07T01:41:10;25.95;;;18.92;;
69047;SDS011;56119;50.118;8.642;2023-04-07T01:43:38;28.42;;;19.58;;
69047;SDS011;56119;50.118;8.642;2023-04-07T01:46:05;27.65;;;18.95;;
69047;SDS011;56119;50.118;8.642;2023-04-07T01:48:31;27.08;;;18.23;;
69047;SDS011;56119;50.118;8.642;2023-04-07T01:50:59;27.42;;;19.42;;
69047;SDS011;56119;50.118;8.642;2023-04-07T01:53:25;27.38;;;18.85;;
69047;SDS011;56119;50.118;8.642;2023-04-07T01:55:52;29.92;;;20.05;;
69047;SDS011;56119;50.118;8.642;2023-04-07T01:58:18;25.60;;;18.00;;
69047;SDS011;56119;50.118;8.642;2023-04-07T02:00:44;27.73;;;19.38;;
69047;SDS011;56119;50.118;8.642;2023-04-07T02:03:12;27.02;;;19.63;;
69047;SDS011;56119;50.118;8.642;2023-04-07T02:05:44;26.92;;;19.25;;
69047;SDS011;56119;50.118;8.642;2023-04-07T02:08:12;25.13;;;18.50;;
69047;SDS011;56119;50.118;8.642;2023-04-07T02:10:39;24.50;;;18.63;;
69047;SDS011;56119;50.118;8.642;2023-04-07T02:13:05;27.33;;;18.95;;
69047;SDS011;56119;50.118;8.642;2023-04-07T02:15:32;25.90;;;18.38;;
69047;SDS011;56119;50.118;8.642;2023-04-07T02:17:59;25.30;;;18.50;;
69047;SDS011;56119;50.118;8.642;2023-04-07T02:20:25;25.58;;;18.35;;
69047;SDS011;56119;50.118;8.642;2023-04-07T02:22:53;24.67;;;17.70;;
69047;SDS011;56119;50.118;8.642;2023-04-07T02:27:49;24.25;;;18.17;;
69047;SDS011;56119;50.118;8.642;2023-04-07T02:30:15;22.75;;;17.25;;
69047;SDS011;56119;50.118;8.642;2023-04-07T02:32:41;22.80;;;17.33;;
69047;SDS011;56119;50.118;8.642;2023-04-07T02:35:07;23.75;;;17.23;;
69047;SDS011;56119;50.118;8.642;2023-04-07T02:37:33;26.00;;;17.17;;
69047;SDS011;56119;50.118;8.642;2023-04-07T02:39:59;23.02;;;17.35;;
69047;SDS011;56119;50.118;8.642;2023-04-07T02:42:25;21.30;;;16.08;;
69047;SDS011;56119;50.118;8.642;2023-04-07T02:44:51;23.30;;;16.30;;
69047;SDS011;56119;50.118;8.642;2023-04-07T02:47:17;21.00;;;16.27;;
69047;SDS011;56119;50.118;8.642;2023-04-07T02:49:43;23.25;;;16.58;;
69047;SDS011;56119;50.118;8.642;2023-04-07T02:52:10;20.55;;;15.68;;
69047;SDS011;56119;50.118;8.642;2023-04-07T02:54:36;22.38;;;15.48;;
69047;SDS011;56119;50.118;8.642;2023-04-07T02:57:02;20.85;;;15.43;;
69047;SDS011;56119;50.118;8.642;2023-04-07T02:59:28;23.13;;;16.45;;
69047;SDS011;56119;50.118;8.642;2023-04-07T03:01:54;21.60;;;15.90;;
69047;SDS011;56119;50.118;8.642;2023-04-07T03:04:20;22.05;;;16.08;;
69047;SDS011;56119;50.118;8.642;2023-04-07T03:06:46;22.35;;;15.88;;
69047;SDS011;56119;50.118;8.642;2023-04-07T03:09:12;21.23;;;16.63;;
69047;SDS011;56119;50.118;8.642;2023-04-07T03:11:39;22.45;;;16.27;;
69047;SDS011;56119;50.118;8.642;2023-04-07T03:14:05;21.45;;;15.50;;
69047;SDS011;56119;50.118;8.642;2023-04-07T03:16:31;23.42;;;16.15;;
69047;SDS011;56119;50.118;8.642;2023-04-07T03:18:57;20.23;;;15.27;;
69047;SDS011;56119;50.118;8.642;2023-04-07T03:21:23;20.67;;;15.27;;
69047;SDS011;56119;50.118;8.642;2023-04-07T03:23:49;20.20;;;14.93;;
69047;SDS011;56119;50.118;8.642;2023-04-07T03:26:15;21.13;;;15.82;;
69047;SDS011;56119;50.118;8.642;2023-04-07T03:28:41;21.83;;;15.40;;
69047;SDS011;56119;50.118;8.642;2023-04-07T03:31:07;20.63;;;15.30;;
69047;SDS011;56119;50.118;8.642;2023-04-07T03:33:33;22.60;;;16.15;;
69047;SDS011;56119;50.118;8.642;2023-04-07T03:36:00;20.95;;;16.10;;
69047;SDS011;56119;50.118;8.642;2023-04-07T03:38:26;22.73;;;16.27;;
69047;SDS011;56119;50.118;8.642;2023-04-07T03:40:52;24.73;;;15.82;;
69047;SDS011;56119;50.118;8.642;2023-04-07T03:43:17;21.58;;;15.48;;
69047;SDS011;56119;50.118;8.642;2023-04-07T03:45:43;21.30;;;15.65;;
69047;SDS011;56119;50.118;8.642;2023-04-07T03:48:09;19.13;;;15.23;;
69047;SDS011;56119;50.118;8.642;2023-04-07T03:50:38;22.20;;;15.70;;
69047;SDS011;56119;50.118;8.642;2023-04-07T03:53:05;19.92;;;15.02;;
69047;SDS011;56119;50.118;8.642;2023-04-07T03:55:31;22.67;;;15.45;;
69047;SDS011;56119;50.118;8.642;2023-04-07T03:57:57;19.98;;;15.80;;
69047;SDS011;56119;50.118;8.642;2023-04-07T04:00:23;21.02;;;15.60;;
69047;SDS011;56119;50.118;8.642;2023-04-07T04:02:50;21.73;;;15.40;;
69047;SDS011;56119;50.118;8.642;2023-04-07T04:05:16;19.33;;;14.38;;
69047;SDS011;56119;50.118;8.642;2023-04-07T04:07:42;19.38;;;15.05;;
69047;SDS011;56119;50.118;8.642;2023-04-07T04:10:08;21.67;;;14.73;;
69047;SDS011;56119;50.118;8.642;2023-04-07T04:12:34;20.55;;;14.77;;
69047;SDS011;56119;50.118;8.642;2023-04-07T04:15:00;19.45;;;14.93;;
69047;SDS011;56119;50.118;8.642;2023-04-07T04:17:26;20.80;;;14.80;;
69047;SDS011;56119;50.118;8.642;2023-04-07T04:19:52;19.83;;;14.50;;
69047;SDS011;56119;50.118;8.642;2023-04-07T04:22:19;17.58;;;14.40;;
69047;SDS011;56119;50.118;8.642;2023-04-07T04:24:45;21.02;;;15.38;;
69047;SDS011;56119;50.118;8.642;2023-04-07T04:27:11;21.10;;;14.85;;
69047;SDS011;56119;50.118;8.642;2023-04-07T04:29:37;23.38;;;15.38;;
69047;SDS011;56119;50.118;8.642;2023-04-07T04:32:03;20.73;;;14.43;;
69047;SDS011;56119;50.118;8.642;2023-04-07T04:34:29;16.98;;;14.18;;
69047;SDS011;56119;50.118;8.642;2023-04-07T04:36:55;17.95;;;12.98;;
69047;SDS011;56119;50.118;8.642;2023-04-07T04:39:21;16.88;;;12.52;;
69047;SDS011;56119;50.118;8.642;2023-04-07T04:41:47;17.95;;;13.70;;
69047;SDS011;56119;50.118;8.642;2023-04-07T04:44:13;16.83;;;13.18;;
69047;SDS011;56119;50.118;8.642;2023-04-07T04:46:39;19.15;;;14.40;;
69047;SDS011;56119;50.118;8.642;2023-04-07T04:49:05;19.95;;;14.68;;
69047;SDS011;56119;50.118;8.642;2023-04-07T04:51:31;20.77;;;15.65;;
69047;SDS011;56119;50.118;8.642;2023-04-07T04:53:57;18.95;;;14.88;;
69047;SDS011;56119;50.118;8.642;2023-04-07T04:56:24;18.63;;;13.43;;
69047;SDS011;56119;50.118;8.642;2023-04-07T04:58:50;18.55;;;14.98;;
69047;SDS011;56119;50.118;8.642;2023-04-07T05:01:16;19.10;;;15.23;;
69047;SDS011;56119;50.118;8.642;2023-04-07T05:03:42;20.58;;;14.15;;
69047;SDS011;56119;50.118;8.642;2023-04-07T05:06:08;20.10;;;15.10;;
69047;SDS011;56119;50.118;8.642;2023-04-07T05:08:34;21.98;;;14.50;;
69047;SDS011;56119;50.118;8.642;2023-04-07T05:11:00;20.33;;;14.68;;
69047;SDS011;56119;50.118;8.642;2023-04-07T05:13:26;17.98;;;14.00;;
69047;SDS011;56119;50.118;8.642;2023-04-07T05:15:54;19.55;;;14.43;;
69047;SDS011;56119;50.118;8.642;2023-04-07T05:18:20;21.85;;;14.60;;
69047;SDS011;56119;50.118;8.642;2023-04-07T05:20:47;18.08;;;13.48;;
69047;SDS011;56119;50.118;8.642;2023-04-07T05:23:14;22.00;;;14.68;;
69047;SDS011;56119;50.118;8.642;2023-04-07T05:25:40;22.42;;;15.10;;
69047;SDS011;56119;50.118;8.642;2023-04-07T05:28:07;20.38;;;14.70;;
69047;SDS011;56119;50.118;8.642;2023-04-07T05:30:33;21.55;;;14.60;;
69047;SDS011;56119;50.118;8.642;2023-04-07T05:32:59;18.90;;;15.25;;
69047;SDS011;56119;50.118;8.642;2023-04-07T05:35:25;20.08;;;14.70;;
69047;SDS011;56119;50.118;8.642;2023-04-07T05:37:51;21.08;;;14.45;;
69047;SDS011;56119;50.118;8.642;2023-04-07T05:40:17;18.75;;;14.63;;
69047;SDS011;56119;50.118;8.642;2023-04-07T05:42:43;19.85;;;14.25;;
69047;SDS011;56119;50.118;8.642;2023-04-07T05:45:09;20.70;;;14.45;;
69047;SDS011;56119;50.118;8.642;2023-04-07T05:47:35;19.13;;;14.82;;
69047;SDS011;56119;50.118;8.642;2023-04-07T05:50:01;20.15;;;15.23;;
69047;SDS011;56119;50.118;8.642;2023-04-07T05:52:27;19.77;;;15.38;;
69047;SDS011;56119;50.118;8.642;2023-04-07T05:54:53;21.08;;;14.15;;
69047;SDS011;56119;50.118;8.642;2023-04-07T05:57:20;19.10;;;14.68;;
69047;SDS011;56119;50.118;8.642;2023-04-07T05:59:46;20.02;;;14.90;;
69047;SDS011;56119;50.118;8.642;2023-04-07T06:02:12;19.95;;;14.63;;
69047;SDS011;56119;50.118;8.642;2023-04-07T06:04:38;19.50;;;15.07;;
69047;SDS011;56119;50.118;8.642;2023-04-07T06:07:05;19.17;;;15.05;;
69047;SDS011;56119;50.118;8.642;2023-04-07T06:09:31;20.52;;;15.10;;
69047;SDS011;56119;50.118;8.642;2023-04-07T06:11:57;19.40;;;14.88;;
69047;SDS011;56119;50.118;8.642;2023-04-07T06:14:25;20.58;;;15.60;;
69047;SDS011;56119;50.118;8.642;2023-04-07T06:16:51;21.80;;;16.50;;
69047;SDS011;56119;50.118;8.642;2023-04-07T06:19:17;21.23;;;16.33;;
69047;SDS011;56119;50.118;8.642;2023-04-07T06:21:43;21.83;;;15.48;;
69047;SDS011;56119;50.118;8.642;2023-04-07T06:24:09;19.40;;;15.05;;
69047;SDS011;56119;50.118;8.642;2023-04-07T06:26:35;18.65;;;14.45;;
69047;SDS011;56119;50.118;8.642;2023-04-07T06:29:01;20.27;;;14.50;;
69047;SDS011;56119;50.118;8.642;2023-04-07T06:31:27;20.90;;;14.52;;
69047;SDS011;56119;50.118;8.642;2023-04-07T06:33:53;24.85;;;14.13;;
69047;SDS011;56119;50.118;8.642;2023-04-07T06:36:19;21.58;;;14.63;;
69047;SDS011;56119;50.118;8.642;2023-04-07T06:38:45;19.35;;;14.63;;
69047;SDS011;56119;50.118;8.642;2023-04-07T06:41:11;19.17;;;13.93;;
69047;SDS011;56119;50.118;8.642;2023-04-07T06:43:41;22.35;;;15.57;;
69047;SDS011;56119;50.118;8.642;2023-04-07T06:46:07;19.85;;;15.05;;
69047;SDS011;56119;50.118;8.642;2023-04-07T06:48:33;21.08;;;14.93;;
69047;SDS011;56119;50.118;8.642;2023-04-07T06:50:59;18.73;;;15.13;;
69047;SDS011;56119;50.118;8.642;2023-04-07T06:53:25;19.45;;;14.35;;
69047;SDS011;56119;50.118;8.642;2023-04-07T06:56:01;17.83;;;14.13;;
69047;SDS011;56119;50.118;8.642;2023-04-07T06:58:27;20.08;;;14.90;;
69047;SDS011;56119;50.118;8.642;2023-04-07T07:00:53;19.83;;;14.40;;
69047;SDS011;56119;50.118;8.642;2023-04-07T07:03:19;20.58;;;17.15;;
69047;SDS011;56119;50.118;8.642;2023-04-07T07:05:45;20.23;;;15.80;;
69047;SDS011;56119;50.118;8.642;2023-04-07T07:08:11;19.15;;;15.13;;
69047;SDS011;56119;50.118;8.642;2023-04-07T07:10:37;21.10;;;14.88;;
69047;SDS011;56119;50.118;8.642;2023-04-07T07:13:03;18.75;;;15.07;;
69047;SDS011;56119;50.118;8.642;2023-04-07T07:15:30;21.17;;;16.10;;
69047;SDS011;56119;50.118;8.642;2023-04-07T07:17:56;21.33;;;15.73;;
69047;SDS011;56119;50.118;8.642;2023-04-07T07:20:22;18.20;;;14.23;;
69047;SDS011;56119;50.118;8.642;2023-04-07T07:22:49;22.20;;;15.02;;
69047;SDS011;56119;50.118;8.642;2023-04-07T07:25:15;19.75;;;14.95;;
69047;SDS011;56119;50.118;8.642;2023-04-07T07:27:41;20.73;;;15.63;;
69047;SDS011;56119;50.118;8.642;2023-04-07T07:30:07;24.17;;;17.17;;
69047;SDS011;56119;50.118;8.642;2023-04-07T07:32:33;21.77;;;16.80;;
69047;SDS011;56119;50.118;8.642;2023-04-07T07:34:59;19.45;;;14.95;;
69047;SDS011;56119;50.118;8.642;2023-04-07T07:37:25;21.42;;;15.95;;
69047;SDS011;56119;50.118;8.642;2023-04-07T07:39:52;19.45;;;15.07;;
69047;SDS011;56119;50.118;8.642;2023-04-07T07:42:18;19.05;;;15.52;;
69047;SDS011;56119;50.118;8.642;2023-04-07T07:44:44;21.20;;;15.85;;
69047;SDS011;56119;50.118;8.642;2023-04-07T07:47:10;19.17;;;15.85;;
69047;SDS011;56119;50.118;8.642;2023-04-07T07:49:37;20.55;;;15.88;;
69047;SDS011;56119;50.118;8.642;2023-04-07T07:52:03;18.55;;;15.18;;
69047;SDS011;56119;50.118;8.642;2023-04-07T07:54:29;19.35;;;15.02;;
69047;SDS011;56119;50.118;8.642;2023-04-07T07:56:55;21.60;;;15.18;;
69047;SDS011;56119;50.118;8.642;2023-04-07T07:59:21;22.27;;;15.95;;
69047;SDS011;56119;50.118;8.642;2023-04-07T08:01:47;20.75;;;15.95;;
69047;SDS011;56119;50.118;8.642;2023-04-07T08:04:13;20.63;;;15.18;;
69047;SDS011;56119;50.118;8.642;2023-04-07T08:06:39;19.88;;;15.95;;
69047;SDS011;56119;50.118;8.642;2023-04-07T08:09:05;20.13;;;14.98;;
69047;SDS011;56119;50.118;8.642;2023-04-07T08:11:31;19.85;;;15.45;;
69047;SDS011;56119;50.118;8.642;2023-04-07T08:13:57;18.60;;;15.82;;
69047;SDS011;56119;50.118;8.642;2023-04-07T08:16:23;20.83;;;15.80;;
69047;SDS011;56119;50.118;8.642;2023-04-07T08:18:50;20.70;;;15.63;;
69047;SDS011;56119;50.118;8.642;2023-04-07T08:21:16;19.60;;;14.75;;
69047;SDS011;56119;50.118;8.642;2023-04-07T08:23:43;20.60;;;15.65;;
69047;SDS011;56119;50.118;8.642;2023-04-07T08:26:10;21.17;;;15.07;;
69047;SDS011;56119;50.118;8.642;2023-04-07T08:28:36;20.90;;;15.60;;
69047;SDS011;56119;50.118;8.642;2023-04-07T08:31:03;19.38;;;15.40;;
69047;SDS011;56119;50.118;8.642;2023-04-07T08:33:29;21.05;;;15.40;;
69047;SDS011;56119;50.118;8.642;2023-04-07T08:35:55;18.60;;;15.45;;
69047;SDS011;56119;50.118;8.642;2023-04-07T08:38:21;20.65;;;15.57;;
69047;SDS011;56119;50.118;8.642;2023-04-07T08:40:48;21.70;;;16.85;;
69047;SDS011;56119;50.118;8.642;2023-04-07T08:43:18;22.27;;;16.92;;
69047;SDS011;56119;50.118;8.642;2023-04-07T08:45:45;23.45;;;17.63;;
69047;SDS011;56119;50.118;8.642;2023-04-07T08:48:17;19.55;;;16.17;;
69047;SDS011;56119;50.118;8.642;2023-04-07T08:50:44;21.08;;;17.17;;
69047;SDS011;56119;50.118;8.642;2023-04-07T08:53:11;20.55;;;16.42;;
69047;SDS011;56119;50.118;8.642;2023-04-07T08:55:41;21.75;;;17.45;;
69047;SDS011;56119;50.118;8.642;2023-04-07T08:58:10;19.38;;;16.58;;
69047;SDS011;56119;50.118;8.642;2023-04-07T09:00:37;19.50;;;16.08;;
69047;SDS011;56119;50.118;8.642;2023-04-07T09:03:03;18.88;;;15.27;;
69047;SDS011;56119;50.118;8.642;2023-04-07T09:05:29;18.58;;;15.85;;
69047;SDS011;56119;50.118;8.642;2023-04-07T09:07:55;21.02;;;17.08;;
69047;SDS011;56119;50.118;8.642;2023-04-07T09:10:21;22.08;;;16.45;;
69047;SDS011;56119;50.118;8.642;2023-04-07T09:12:48;20.83;;;17.38;;
69047;SDS011;56119;50.118;8.642;2023-04-07T09:15:14;19.75;;;16.50;;
69047;SDS011;56119;50.118;8.642;2023-04-07T09:17:40;20.92;;;16.67;;
69047;SDS011;56119;50.118;8.642;2023-04-07T09:20:06;25.33;;;18.40;;
69047;SDS011;56119;50.118;8.642;2023-04-07T09:22:39;22.10;;;17.38;;
69047;SDS011;56119;50.118;8.642;2023-04-07T09:25:15;21.60;;;16.92;;
69047;SDS011;56119;50.118;8.642;2023-04-07T09:28:00;21.35;;;16.42;;
69047;SDS011;56119;50.118;8.642;2023-04-07T09:30:30;20.85;;;17.05;;
69047;SDS011;56119;50.118;8.642;2023-04-07T09:32:57;22.02;;;17.33;;
69047;SDS011;56119;50.118;8.642;2023-04-07T09:35:23;23.00;;;17.60;;
69047;SDS011;56119;50.118;8.642;2023-04-07T09:38:07;22.35;;;16.85;;
69047;SDS011;56119;50.118;8.642;2023-04-07T09:40:34;25.15;;;17.80;;
69047;SDS011;56119;50.118;8.642;2023-04-07T09:43:01;25.38;;;18.23;;
69047;SDS011;56119;50.118;8.642;2023-04-07T09:45:28;21.60;;;16.90;;
69047;SDS011;56119;50.118;8.642;2023-04-07T09:47:54;23.63;;;17.15;;
69047;SDS011;56119;50.118;8.642;2023-04-07T09:50:30;22.58;;;17.75;;
69047;SDS011;56119;50.118;8.642;2023-04-07T09:52:57;22.23;;;17.67;;
69047;SDS011;56119;50.118;8.642;2023-04-07T09:55:23;22.48;;;17.52;;
69047;SDS011;56119;50.118;8.642;2023-04-07T09:57:49;21.98;;;16.88;;
69047;SDS011;56119;50.118;8.642;2023-04-07T10:00:16;20.95;;;16.30;;
69047;SDS011;56119;50.118;8.642;2023-04-07T10:02:42;19.65;;;15.85;;
69047;SDS011;56119;50.118;8.642;2023-04-07T10:05:09;22.42;;;16.30;;
69047;SDS011;56119;50.118;8.642;2023-04-07T10:07:35;19.75;;;16.00;;
69047;SDS011;56119;50.118;8.642;2023-04-07T10:10:04;21.85;;;16.52;;
69047;SDS011;56119;50.118;8.642;2023-04-07T10:12:32;19.15;;;16.20;;
69047;SDS011;56119;50.118;8.642;2023-04-07T10:14:59;18.48;;;16.02;;
69047;SDS011;56119;50.118;8.642;2023-04-07T10:17:28;21.50;;;15.63;;
69047;SDS011;56119;50.118;8.642;2023-04-07T10:19:57;19.73;;;15.43;;
69047;SDS011;56119;50.118;8.642;2023-04-07T10:22:26;18.52;;;15.60;;
69047;SDS011;56119;50.118;8.642;2023-04-07T10:24:55;18.08;;;14.95;;
69047;SDS011;56119;50.118;8.642;2023-04-07T10:27:32;19.02;;;14.57;;
69047;SDS011;56119;50.118;8.642;2023-04-07T10:30:00;17.50;;;14.95;;
69047;SDS011;56119;50.118;8.642;2023-04-07T10:32:28;17.92;;;14.82;;
69047;SDS011;56119;50.118;8.642;2023-04-07T10:34:55;19.98;;;15.30;;
69047;SDS011;56119;50.118;8.642;2023-04-07T10:37:22;17.88;;;14.68;;
69047;SDS011;56119;50.118;8.642;2023-04-07T10:45:03;18.95;;;14.65;;
69047;SDS011;56119;50.118;8.642;2023-04-07T10:47:29;19.00;;;15.23;;
69047;SDS011;56119;50.118;8.642;2023-04-07T10:52:42;17.45;;;14.57;;
69047;SDS011;56119;50.118;8.642;2023-04-07T11:00:38;19.42;;;15.35;;
69047;SDS011;56119;50.118;8.642;2023-04-07T11:03:13;17.20;;;14.50;;
69047;SDS011;56119;50.118;8.642;2023-04-07T11:05:40;19.20;;;14.52;;
69047;SDS011;56119;50.118;8.642;2023-04-07T11:08:06;18.90;;;15.63;;
69047;SDS011;56119;50.118;8.642;2023-04-07T11:10:32;17.08;;;14.55;;
69047;SDS011;56119;50.118;8.642;2023-04-07T11:13:05;17.15;;;15.15;;
69047;SDS011;56119;50.118;8.642;2023-04-07T11:15:32;17.85;;;15.35;;
69047;SDS011;56119;50.118;8.642;2023-04-07T11:18:17;16.73;;;14.10;;
69047;SDS011;56119;50.118;8.642;2023-04-07T11:20:50;19.30;;;15.55;;
69047;SDS011;56119;50.118;8.642;2023-04-07T11:23:17;17.77;;;15.23;;
69047;SDS011;56119;50.118;8.642;2023-04-07T11:25:44;18.88;;;14.45;;
69047;SDS011;56119;50.118;8.642;2023-04-07T11:28:11;19.15;;;14.75;;
69047;SDS011;56119;50.118;8.642;2023-04-07T11:30:38;18.02;;;14.63;;
69047;SDS011;56119;50.118;8.642;2023-04-07T11:33:04;19.52;;;15.32;;
69047;SDS011;56119;50.118;8.642;2023-04-07T11:35:30;17.50;;;14.85;;
69047;SDS011;56119;50.118;8.642;2023-04-07T11:37:56;16.75;;;14.35;;
69047;SDS011;56119;50.118;8.642;2023-04-07T11:40:33;16.85;;;13.90;;
69047;SDS011;56119;50.118;8.642;2023-04-07T11:42:59;17.50;;;14.25;;
69047;SDS011;56119;50.118;8.642;2023-04-07T11:45:26;16.70;;;13.27;;
69047;SDS011;56119;50.118;8.642;2023-04-07T11:47:52;15.18;;;12.70;;
69047;SDS011;56119;50.118;8.642;2023-04-07T11:53:03;15.60;;;12.88;;
69047;SDS011;56119;50.118;8.642;2023-04-07T11:55:29;15.88;;;12.43;;
69047;SDS011;56119;50.118;8.642;2023-04-07T11:58:04;14.38;;;12.45;;
69047;SDS011;56119;50.118;8.642;2023-04-07T12:00:30;17.05;;;14.05;;
69047;SDS011;56119;50.118;8.642;2023-04-07T12:02:56;14.73;;;13.15;;
69047;SDS011;56119;50.118;8.642;2023-04-07T12:05:22;14.35;;;12.25;;
69047;SDS011;56119;50.118;8.642;2023-04-07T12:07:52;16.88;;;12.57;;
69047;SDS011;56119;50.118;8.642;2023-04-07T12:10:22;14.73;;;12.10;;
69047;SDS011;56119;50.118;8.642;2023-04-07T12:12:50;14.68;;;12.02;;
69047;SDS011;56119;50.118;8.642;2023-04-07T12:15:16;14.45;;;12.18;;
69047;SDS011;56119;50.118;8.642;2023-04-07T12:17:46;13.93;;;12.20;;
69047;SDS011;56119;50.118;8.642;2023-04-07T12:20:12;13.77;;;12.20;;
69047;SDS011;56119;50.118;8.642;2023-04-07T12:22:38;15.13;;;12.38;;
69047;SDS011;56119;50.118;8.642;2023-04-07T12:25:05;15.02;;;11.82;;
69047;SDS011;56119;50.118;8.642;2023-04-07T12:27:31;13.32;;;10.95;;
69047;SDS011;56119;50.118;8.642;2023-04-07T12:29:57;13.32;;;11.38;;
69047;SDS011;56119;50.118;8.642;2023-04-07T12:32:23;14.32;;;10.43;;
69047;SDS011;56119;50.118;8.642;2023-04-07T12:34:49;15.00;;;11.40;;
69047;SDS011;56119;50.118;8.642;2023-04-07T12:37:15;15.10;;;10.35;;
69047;SDS011;56119;50.118;8.642;2023-04-07T12:39:41;11.75;;;9.65;;
69047;SDS011;56119;50.118;8.642;2023-04-07T12:42:07;12.45;;;10.13;;
69047;SDS011;56119;50.118;8.642;2023-04-07T12:44:35;11.18;;;8.43;;
69047;SDS011;56119;50.118;8.642;2023-04-07T12:47:01;10.60;;;9.50;;
69047;SDS011;56119;50.118;8.642;2023-04-07T12:49:27;10.18;;;7.93;;
69047;SDS011;56119;50.118;8.642;2023-04-07T12:51:53;8.88;;;7.97;;
69047;SDS011;56119;50.118;8.642;2023-04-07T12:54:20;9.45;;;7.40;;
69047;SDS011;56119;50.118;8.642;2023-04-07T12:56:46;9.55;;;8.32;;
69047;SDS011;56119;50.118;8.642;2023-04-07T12:59:12;8.27;;;7.03;;
69047;SDS011;56119;50.118;8.642;2023-04-07T13:01:38;10.13;;;7.70;;
69047;SDS011;56119;50.118;8.642;2023-04-07T13:04:04;8.95;;;7.57;;
69047;SDS011;56119;50.118;8.642;2023-04-07T13:06:30;8.02;;;6.72;;
69047;SDS011;56119;50.118;8.642;2023-04-07T13:08:56;8.32;;;7.30;;
69047;SDS011;56119;50.118;8.642;2023-04-07T13:11:22;8.45;;;6.55;;
69047;SDS011;56119;50.118;8.642;2023-04-07T13:13:48;8.63;;;7.53;;
69047;SDS011;56119;50.118;8.642;2023-04-07T13:16:14;7.70;;;6.32;;
69047;SDS011;56119;50.118;8.642;2023-04-07T13:18:40;7.18;;;6.40;;
69047;SDS011;56119;50.118;8.642;2023-04-07T13:21:06;7.28;;;6.28;;
69047;SDS011;56119;50.118;8.642;2023-04-07T13:23:32;5.85;;;5.25;;
69047;SDS011;56119;50.118;8.642;2023-04-07T13:25:58;6.63;;;5.63;;
69047;SDS011;56119;50.118;8.642;2023-04-07T13:28:25;6.22;;;5.53;;
69047;SDS011;56119;50.118;8.642;2023-04-07T13:30:51;6.30;;;5.60;;
69047;SDS011;56119;50.118;8.642;2023-04-07T13:33:17;5.63;;;5.07;;
69047;SDS011;56119;50.118;8.642;2023-04-07T13:35:43;5.55;;;4.95;;
69047;SDS011;56119;50.118;8.642;2023-04-07T13:38:09;4.80;;;4.30;;
69047;SDS011;56119;50.118;8.642;2023-04-07T13:40:35;6.15;;;4.45;;
69047;SDS011;56119;50.118;8.642;2023-04-07T13:43:01;5.32;;;4.82;;
69047;SDS011;56119;50.118;8.642;2023-04-07T13:45:28;5.18;;;4.35;;
69047;SDS011;56119;50.118;8.642;2023-04-07T13:47:54;5.45;;;4.22;;
69047;SDS011;56119;50.118;8.642;2023-04-07T13:50:20;4.93;;;4.32;;
69047;SDS011;56119;50.118;8.642;2023-04-07T13:52:46;4.47;;;3.80;;
69047;SDS011;56119;50.118;8.642;2023-04-07T13:55:12;4.38;;;3.42;;
69047;SDS011;56119;50.118;8.642;2023-04-07T13:57:39;3.13;;;2.80;;
69047;SDS011;56119;50.118;8.642;2023-04-07T14:00:06;3.35;;;2.97;;
69047;SDS011;56119;50.118;8.642;2023-04-07T14:02:32;3.55;;;3.10;;
69047;SDS011;56119;50.118;8.642;2023-04-07T14:04:58;4.53;;;3.85;;
69047;SDS011;56119;50.118;8.642;2023-04-07T14:07:24;4.15;;;3.75;;
69047;SDS011;56119;50.118;8.642;2023-04-07T14:09:50;5.53;;;4.20;;
69047;SDS011;56119;50.118;8.642;2023-04-07T14:12:18;5.10;;;4.40;;
69047;SDS011;56119;50.118;8.642;2023-04-07T14:14:45;5.22;;;4.47;;
69047;SDS011;56119;50.118;8.642;2023-04-07T14:17:14;4.47;;;3.65;;
69047;SDS011;56119;50.118;8.642;2023-04-07T14:19:40;5.70;;;4.35;;
69047;SDS011;56119;50.118;8.642;2023-04-07T14:22:06;5.47;;;4.28;;
69047;SDS011;56119;50.118;8.642;2023-04-07T14:24:32;4.22;;;3.60;;
69047;SDS011;56119;50.118;8.642;2023-04-07T14:26:58;4.45;;;3.17;;
69047;SDS011;56119;50.118;8.642;2023-04-07T14:29:25;5.60;;;3.70;;
69047;SDS011;56119;50.118;8.642;2023-04-07T14:31:51;5.43;;;3.83;;
69047;SDS011;56119;50.118;8.642;2023-04-07T14:34:17;4.03;;;3.47;;
69047;SDS011;56119;50.118;8.642;2023-04-07T14:36:54;3.75;;;3.35;;
69047;SDS011;56119;50.118;8.642;2023-04-07T14:39:23;3.05;;;2.70;;
69047;SDS011;56119;50.118;8.642;2023-04-07T14:41:49;2.60;;;2.33;;
69047;SDS011;56119;50.118;8.642;2023-04-07T14:44:15;3.60;;;2.58;;
69047;SDS011;56119;50.118;8.642;2023-04-07T14:46:41;3.30;;;3.00;;
69047;SDS011;56119;50.118;8.642;2023-04-07T14:49:08;3.72;;;3.30;;
69047;SDS011;56119;50.118;8.642;2023-04-07T14:51:34;2.30;;;2.10;;